Terminal Aerodrome Forecast
Issued by NWS

Home | Current Version | Previous Version | Text Only | Print | Product List | Glossary On
Versions: 1 2 3 4 5 6 7 8 9 10 11 12 13 14 15 16 17
000
FTUS41 KCLE 051720
TAFFDY
TAF
KFDY 051720Z 0518/0618 22008KT P6SM OVC020
     FM052300 18003KT P6SM SCT025 BKN150
      TEMPO 0523/0602 BKN025
     FM060200 12003KT P6SM SCT012 BKN120
     FM061000 08007KT P6SM SCT012 OVC045
      TEMPO 0610/0614 BKN012
     FM061400 08008KT 5SM -RA BR OVC012
      TEMPO 0614/0618 2SM -RA BR BKN008=

USA.gov is the U.S. government's official web portal to all federal, state and local government web resources and services.